sensor_id;sensor_type;location;lat;lon;timestamp;P1;durP1;ratioP1;P2;durP2;ratioP2
19782;SDS011;10051;40.294;-3.754;2023-02-14T00:00:17;9.65;;;5.90;;
19782;SDS011;10051;40.294;-3.754;2023-02-14T00:02:46;10.40;;;6.07;;
19782;SDS011;10051;40.294;-3.754;2023-02-14T00:05:12;12.70;;;6.20;;
19782;SDS011;10051;40.294;-3.754;2023-02-14T00:07:37;11.10;;;6.00;;
19782;SDS011;10051;40.294;-3.754;2023-02-14T00:10:03;10.63;;;6.38;;
19782;SDS011;10051;40.294;-3.754;2023-02-14T00:12:29;10.97;;;6.00;;
19782;SDS011;10051;40.294;-3.754;2023-02-14T00:14:54;13.00;;;6.30;;
19782;SDS011;10051;40.294;-3.754;2023-02-14T00:17:38;11.13;;;5.73;;
19782;SDS011;10051;40.294;-3.754;2023-02-14T00:20:04;11.37;;;6.17;;
19782;SDS011;10051;40.294;-3.754;2023-02-14T00:22:30;9.10;;;5.43;;
19782;SDS011;10051;40.294;-3.754;2023-02-14T00:24:59;13.00;;;6.13;;
19782;SDS011;10051;40.294;-3.754;2023-02-14T00:27:25;10.77;;;5.87;;
19782;SDS011;10051;40.294;-3.754;2023-02-14T00:29:50;13.47;;;6.10;;
19782;SDS011;10051;40.294;-3.754;2023-02-14T00:32:16;13.47;;;5.87;;
19782;SDS011;10051;40.294;-3.754;2023-02-14T00:34:42;9.52;;;5.90;;
19782;SDS011;10051;40.294;-3.754;2023-02-14T00:37:07;13.63;;;6.70;;
19782;SDS011;10051;40.294;-3.754;2023-02-14T00:39:33;9.53;;;6.07;;
19782;SDS011;10051;40.294;-3.754;2023-02-14T00:41:59;13.47;;;6.20;;
19782;SDS011;10051;40.294;-3.754;2023-02-14T00:44:24;12.33;;;6.97;;
19782;SDS011;10051;40.294;-3.754;2023-02-14T00:46:50;15.67;;;7.73;;
19782;SDS011;10051;40.294;-3.754;2023-02-14T00:49:16;14.63;;;7.68;;
19782;SDS011;10051;40.294;-3.754;2023-02-14T00:51:42;15.03;;;7.03;;
19782;SDS011;10051;40.294;-3.754;2023-02-14T00:54:07;18.30;;;6.83;;
19782;SDS011;10051;40.294;-3.754;2023-02-14T00:56:33;12.93;;;6.50;;
19782;SDS011;10051;40.294;-3.754;2023-02-14T00:58:58;12.30;;;6.67;;
19782;SDS011;10051;40.294;-3.754;2023-02-14T01:01:24;12.43;;;6.80;;
19782;SDS011;10051;40.294;-3.754;2023-02-14T01:03:50;11.98;;;6.95;;
19782;SDS011;10051;40.294;-3.754;2023-02-14T01:06:16;13.73;;;6.90;;
19782;SDS011;10051;40.294;-3.754;2023-02-14T01:08:41;11.20;;;6.63;;
19782;SDS011;10051;40.294;-3.754;2023-02-14T01:11:08;10.47;;;6.47;;
19782;SDS011;10051;40.294;-3.754;2023-02-14T01:13:36;13.70;;;7.07;;
19782;SDS011;10051;40.294;-3.754;2023-02-14T01:16:06;13.10;;;7.00;;
19782;SDS011;10051;40.294;-3.754;2023-02-14T01:18:34;11.27;;;6.90;;
19782;SDS011;10051;40.294;-3.754;2023-02-14T01:23:37;15.10;;;6.97;;
19782;SDS011;10051;40.294;-3.754;2023-02-14T01:26:03;12.47;;;6.90;;
19782;SDS011;10051;40.294;-3.754;2023-02-14T01:28:30;13.82;;;6.95;;
19782;SDS011;10051;40.294;-3.754;2023-02-14T01:30:55;12.70;;;6.95;;
19782;SDS011;10051;40.294;-3.754;2023-02-14T01:33:21;11.32;;;6.32;;
19782;SDS011;10051;40.294;-3.754;2023-02-14T01:35:46;11.73;;;6.83;;
19782;SDS011;10051;40.294;-3.754;2023-02-14T01:38:12;13.57;;;6.47;;
19782;SDS011;10051;40.294;-3.754;2023-02-14T01:40:42;12.70;;;6.33;;
19782;SDS011;10051;40.294;-3.754;2023-02-14T01:43:17;13.17;;;6.73;;
19782;SDS011;10051;40.294;-3.754;2023-02-14T01:45:42;14.43;;;7.03;;
19782;SDS011;10051;40.294;-3.754;2023-02-14T01:48:08;13.47;;;6.43;;
19782;SDS011;10051;40.294;-3.754;2023-02-14T01:50:35;11.67;;;6.97;;
19782;SDS011;10051;40.294;-3.754;2023-02-14T01:53:07;15.73;;;6.93;;
19782;SDS011;10051;40.294;-3.754;2023-02-14T01:55:38;13.00;;;7.07;;
19782;SDS011;10051;40.294;-3.754;2023-02-14T01:58:10;13.80;;;6.97;;
19782;SDS011;10051;40.294;-3.754;2023-02-14T02:00:39;10.70;;;6.80;;
19782;SDS011;10051;40.294;-3.754;2023-02-14T02:03:22;13.27;;;7.13;;
19782;SDS011;10051;40.294;-3.754;2023-02-14T02:05:51;13.00;;;6.77;;
19782;SDS011;10051;40.294;-3.754;2023-02-14T02:08:22;13.10;;;6.90;;
19782;SDS011;10051;40.294;-3.754;2023-02-14T02:10:47;12.67;;;6.97;;
19782;SDS011;10051;40.294;-3.754;2023-02-14T02:13:17;15.57;;;7.05;;
19782;SDS011;10051;40.294;-3.754;2023-02-14T02:18:22;13.40;;;6.70;;
19782;SDS011;10051;40.294;-3.754;2023-02-14T02:21:10;12.90;;;6.67;;
19782;SDS011;10051;40.294;-3.754;2023-02-14T02:24:21;11.83;;;6.30;;
19782;SDS011;10051;40.294;-3.754;2023-02-14T02:46:15;10.13;;;6.33;;
19782;SDS011;10051;40.294;-3.754;2023-02-14T02:51:38;17.33;;;6.50;;
19782;SDS011;10051;40.294;-3.754;2023-02-14T02:54:45;12.20;;;6.50;;
19782;SDS011;10051;40.294;-3.754;2023-02-14T02:57:26;11.67;;;6.30;;
19782;SDS011;10051;40.294;-3.754;2023-02-14T02:59:58;11.23;;;6.40;;
19782;SDS011;10051;40.294;-3.754;2023-02-14T03:02:29;12.20;;;6.00;;
19782;SDS011;10051;40.294;-3.754;2023-02-14T03:05:34;11.33;;;6.43;;
19782;SDS011;10051;40.294;-3.754;2023-02-14T03:08:01;14.73;;;6.47;;
19782;SDS011;10051;40.294;-3.754;2023-02-14T03:10:32;14.00;;;6.43;;
19782;SDS011;10051;40.294;-3.754;2023-02-14T03:22:33;9.73;;;6.40;;
19782;SDS011;10051;40.294;-3.754;2023-02-14T03:25:15;10.97;;;6.70;;
19782;SDS011;10051;40.294;-3.754;2023-02-14T03:28:03;14.15;;;6.55;;
19782;SDS011;10051;40.294;-3.754;2023-02-14T03:30:38;9.98;;;6.13;;
19782;SDS011;10051;40.294;-3.754;2023-02-14T03:33:31;9.63;;;6.63;;
19782;SDS011;10051;40.294;-3.754;2023-02-14T03:36:06;11.68;;;6.68;;
19782;SDS011;10051;40.294;-3.754;2023-02-14T03:38:55;14.33;;;6.50;;
19782;SDS011;10051;40.294;-3.754;2023-02-14T03:41:28;12.10;;;6.20;;
19782;SDS011;10051;40.294;-3.754;2023-02-14T03:43:58;10.88;;;6.57;;
19782;SDS011;10051;40.294;-3.754;2023-02-14T03:49:17;11.27;;;6.80;;
19782;SDS011;10051;40.294;-3.754;2023-02-14T03:51:48;11.32;;;6.50;;
19782;SDS011;10051;40.294;-3.754;2023-02-14T03:54:16;10.07;;;6.20;;
19782;SDS011;10051;40.294;-3.754;2023-02-14T03:56:52;10.67;;;6.17;;
19782;SDS011;10051;40.294;-3.754;2023-02-14T03:59:24;13.00;;;6.38;;
19782;SDS011;10051;40.294;-3.754;2023-02-14T04:01:58;9.83;;;6.47;;
19782;SDS011;10051;40.294;-3.754;2023-02-14T04:04:31;11.63;;;6.80;;
19782;SDS011;10051;40.294;-3.754;2023-02-14T04:07:07;12.47;;;6.10;;
19782;SDS011;10051;40.294;-3.754;2023-02-14T04:09:39;11.52;;;6.53;;
19782;SDS011;10051;40.294;-3.754;2023-02-14T04:12:05;10.40;;;6.50;;
19782;SDS011;10051;40.294;-3.754;2023-02-14T04:14:31;10.83;;;6.60;;
19782;SDS011;10051;40.294;-3.754;2023-02-14T04:16:57;11.63;;;7.00;;
19782;SDS011;10051;40.294;-3.754;2023-02-14T04:19:45;10.83;;;6.93;;
19782;SDS011;10051;40.294;-3.754;2023-02-14T04:22:10;11.53;;;7.17;;
19782;SDS011;10051;40.294;-3.754;2023-02-14T04:24:36;14.07;;;7.20;;
19782;SDS011;10051;40.294;-3.754;2023-02-14T04:27:02;12.13;;;6.90;;
19782;SDS011;10051;40.294;-3.754;2023-02-14T04:29:38;12.70;;;7.37;;
19782;SDS011;10051;40.294;-3.754;2023-02-14T04:32:09;16.30;;;8.07;;
19782;SDS011;10051;40.294;-3.754;2023-02-14T04:34:37;11.33;;;7.03;;
19782;SDS011;10051;40.294;-3.754;2023-02-14T04:37:03;13.23;;;7.50;;
19782;SDS011;10051;40.294;-3.754;2023-02-14T04:39:29;12.90;;;7.07;;
19782;SDS011;10051;40.294;-3.754;2023-02-14T04:41:55;12.37;;;7.40;;
19782;SDS011;10051;40.294;-3.754;2023-02-14T04:44:21;13.23;;;7.25;;
19782;SDS011;10051;40.294;-3.754;2023-02-14T04:46:47;11.43;;;7.63;;
19782;SDS011;10051;40.294;-3.754;2023-02-14T04:49:13;15.43;;;7.63;;
19782;SDS011;10051;40.294;-3.754;2023-02-14T04:51:38;12.80;;;7.50;;
19782;SDS011;10051;40.294;-3.754;2023-02-14T04:54:04;14.00;;;7.23;;
19782;SDS011;10051;40.294;-3.754;2023-02-14T04:56:30;15.47;;;7.93;;
19782;SDS011;10051;40.294;-3.754;2023-02-14T04:58:55;12.73;;;7.53;;
19782;SDS011;10051;40.294;-3.754;2023-02-14T05:01:22;12.30;;;7.70;;
19782;SDS011;10051;40.294;-3.754;2023-02-14T05:03:48;10.97;;;7.23;;
19782;SDS011;10051;40.294;-3.754;2023-02-14T05:06:14;15.57;;;7.90;;
19782;SDS011;10051;40.294;-3.754;2023-02-14T05:08:39;17.43;;;7.63;;
19782;SDS011;10051;40.294;-3.754;2023-02-14T05:11:05;12.60;;;7.53;;
19782;SDS011;10051;40.294;-3.754;2023-02-14T05:13:31;11.40;;;7.10;;
19782;SDS011;10051;40.294;-3.754;2023-02-14T05:15:56;15.23;;;7.80;;
19782;SDS011;10051;40.294;-3.754;2023-02-14T05:18:22;12.53;;;7.53;;
19782;SDS011;10051;40.294;-3.754;2023-02-14T05:20:48;13.77;;;7.73;;
19782;SDS011;10051;40.294;-3.754;2023-02-14T05:23:15;13.93;;;7.50;;
19782;SDS011;10051;40.294;-3.754;2023-02-14T05:25:40;12.23;;;7.20;;
19782;SDS011;10051;40.294;-3.754;2023-02-14T05:28:07;13.77;;;7.77;;
19782;SDS011;10051;40.294;-3.754;2023-02-14T05:30:32;12.83;;;7.13;;
19782;SDS011;10051;40.294;-3.754;2023-02-14T05:32:59;14.07;;;7.30;;
19782;SDS011;10051;40.294;-3.754;2023-02-14T05:35:25;15.50;;;8.00;;
19782;SDS011;10051;40.294;-3.754;2023-02-14T05:37:51;11.13;;;7.23;;
19782;SDS011;10051;40.294;-3.754;2023-02-14T05:40:17;15.00;;;7.43;;
19782;SDS011;10051;40.294;-3.754;2023-02-14T05:42:43;11.83;;;7.30;;
19782;SDS011;10051;40.294;-3.754;2023-02-14T05:45:08;13.77;;;7.70;;
19782;SDS011;10051;40.294;-3.754;2023-02-14T05:47:35;13.27;;;7.80;;
19782;SDS011;10051;40.294;-3.754;2023-02-14T05:50:03;12.77;;;7.70;;
19782;SDS011;10051;40.294;-3.754;2023-02-14T05:52:30;13.77;;;8.10;;
19782;SDS011;10051;40.294;-3.754;2023-02-14T05:54:56;14.70;;;8.60;;
19782;SDS011;10051;40.294;-3.754;2023-02-14T05:57:21;14.73;;;8.53;;
19782;SDS011;10051;40.294;-3.754;2023-02-14T05:59:47;15.50;;;8.50;;
19782;SDS011;10051;40.294;-3.754;2023-02-14T06:02:12;16.77;;;8.40;;
19782;SDS011;10051;40.294;-3.754;2023-02-14T06:04:40;15.70;;;8.60;;
19782;SDS011;10051;40.294;-3.754;2023-02-14T06:07:05;16.20;;;8.87;;
19782;SDS011;10051;40.294;-3.754;2023-02-14T06:09:31;14.93;;;8.83;;
19782;SDS011;10051;40.294;-3.754;2023-02-14T06:11:57;16.43;;;8.97;;
19782;SDS011;10051;40.294;-3.754;2023-02-14T06:14:23;15.00;;;8.43;;
19782;SDS011;10051;40.294;-3.754;2023-02-14T06:16:48;16.93;;;8.90;;
19782;SDS011;10051;40.294;-3.754;2023-02-14T06:19:14;14.53;;;9.30;;
19782;SDS011;10051;40.294;-3.754;2023-02-14T06:21:40;15.13;;;9.13;;
19782;SDS011;10051;40.294;-3.754;2023-02-14T06:24:05;15.97;;;9.63;;
19782;SDS011;10051;40.294;-3.754;2023-02-14T06:26:31;16.73;;;9.00;;
19782;SDS011;10051;40.294;-3.754;2023-02-14T06:28:57;19.47;;;10.07;;
19782;SDS011;10051;40.294;-3.754;2023-02-14T06:31:23;18.43;;;9.97;;
19782;SDS011;10051;40.294;-3.754;2023-02-14T06:33:50;17.23;;;9.57;;
19782;SDS011;10051;40.294;-3.754;2023-02-14T06:36:16;14.97;;;9.67;;
19782;SDS011;10051;40.294;-3.754;2023-02-14T06:38:41;17.57;;;9.27;;
19782;SDS011;10051;40.294;-3.754;2023-02-14T06:41:08;15.93;;;8.83;;
19782;SDS011;10051;40.294;-3.754;2023-02-14T06:43:34;15.17;;;9.40;;
19782;SDS011;10051;40.294;-3.754;2023-02-14T06:46:01;18.73;;;9.80;;
19782;SDS011;10051;40.294;-3.754;2023-02-14T06:48:27;16.67;;;9.20;;
19782;SDS011;10051;40.294;-3.754;2023-02-14T06:50:53;16.60;;;9.90;;
19782;SDS011;10051;40.294;-3.754;2023-02-14T06:53:19;21.83;;;9.40;;
19782;SDS011;10051;40.294;-3.754;2023-02-14T06:55:44;15.73;;;9.10;;
19782;SDS011;10051;40.294;-3.754;2023-02-14T06:58:10;16.10;;;9.27;;
19782;SDS011;10051;40.294;-3.754;2023-02-14T07:00:36;17.63;;;9.00;;
19782;SDS011;10051;40.294;-3.754;2023-02-14T07:03:01;20.33;;;9.60;;
19782;SDS011;10051;40.294;-3.754;2023-02-14T07:05:27;17.77;;;9.83;;
19782;SDS011;10051;40.294;-3.754;2023-02-14T07:07:53;20.00;;;9.90;;
19782;SDS011;10051;40.294;-3.754;2023-02-14T07:10:18;19.10;;;9.97;;
19782;SDS011;10051;40.294;-3.754;2023-02-14T07:12:44;20.37;;;9.57;;
19782;SDS011;10051;40.294;-3.754;2023-02-14T07:15:10;17.50;;;10.07;;
19782;SDS011;10051;40.294;-3.754;2023-02-14T07:17:37;18.27;;;9.60;;
19782;SDS011;10051;40.294;-3.754;2023-02-14T07:20:03;17.67;;;9.93;;
19782;SDS011;10051;40.294;-3.754;2023-02-14T07:22:31;17.03;;;9.60;;
19782;SDS011;10051;40.294;-3.754;2023-02-14T07:24:57;17.87;;;9.83;;
19782;SDS011;10051;40.294;-3.754;2023-02-14T07:27:23;22.13;;;9.87;;
19782;SDS011;10051;40.294;-3.754;2023-02-14T07:29:48;18.33;;;9.63;;
19782;SDS011;10051;40.294;-3.754;2023-02-14T07:32:14;25.40;;;10.17;;
19782;SDS011;10051;40.294;-3.754;2023-02-14T07:34:40;18.20;;;10.30;;
19782;SDS011;10051;40.294;-3.754;2023-02-14T07:37:05;20.57;;;12.40;;
19782;SDS011;10051;40.294;-3.754;2023-02-14T07:39:31;18.80;;;10.60;;
19782;SDS011;10051;40.294;-3.754;2023-02-14T07:41:56;20.30;;;11.50;;
19782;SDS011;10051;40.294;-3.754;2023-02-14T07:44:22;20.43;;;11.13;;
19782;SDS011;10051;40.294;-3.754;2023-02-14T07:46:48;22.13;;;10.90;;
19782;SDS011;10051;40.294;-3.754;2023-02-14T07:49:14;21.00;;;11.80;;
19782;SDS011;10051;40.294;-3.754;2023-02-14T07:51:39;19.57;;;11.47;;
19782;SDS011;10051;40.294;-3.754;2023-02-14T07:54:05;19.43;;;10.77;;
19782;SDS011;10051;40.294;-3.754;2023-02-14T07:56:31;23.60;;;10.90;;
19782;SDS011;10051;40.294;-3.754;2023-02-14T07:58:56;24.97;;;11.20;;
19782;SDS011;10051;40.294;-3.754;2023-02-14T08:01:22;22.37;;;11.03;;
19782;SDS011;10051;40.294;-3.754;2023-02-14T08:03:47;22.20;;;11.47;;
19782;SDS011;10051;40.294;-3.754;2023-02-14T08:06:17;23.77;;;11.77;;
19782;SDS011;10051;40.294;-3.754;2023-02-14T08:08:43;23.47;;;11.97;;
19782;SDS011;10051;40.294;-3.754;2023-02-14T08:11:09;21.87;;;11.40;;
19782;SDS011;10051;40.294;-3.754;2023-02-14T08:13:35;23.67;;;12.00;;
19782;SDS011;10051;40.294;-3.754;2023-02-14T08:16:01;21.53;;;11.27;;
19782;SDS011;10051;40.294;-3.754;2023-02-14T08:18:36;22.27;;;11.60;;
19782;SDS011;10051;40.294;-3.754;2023-02-14T08:21:04;21.87;;;11.70;;
19782;SDS011;10051;40.294;-3.754;2023-02-14T08:23:31;20.77;;;11.37;;
19782;SDS011;10051;40.294;-3.754;2023-02-14T08:25:57;20.33;;;10.77;;
19782;SDS011;10051;40.294;-3.754;2023-02-14T08:28:23;21.43;;;11.03;;
19782;SDS011;10051;40.294;-3.754;2023-02-14T08:30:49;17.17;;;10.63;;
19782;SDS011;10051;40.294;-3.754;2023-02-14T08:33:15;19.13;;;10.50;;
19782;SDS011;10051;40.294;-3.754;2023-02-14T08:35:41;19.27;;;10.30;;
19782;SDS011;10051;40.294;-3.754;2023-02-14T08:38:06;19.67;;;10.47;;
19782;SDS011;10051;40.294;-3.754;2023-02-14T08:40:32;16.90;;;9.80;;
19782;SDS011;10051;40.294;-3.754;2023-02-14T08:43:00;21.13;;;10.30;;
19782;SDS011;10051;40.294;-3.754;2023-02-14T08:45:25;16.97;;;9.83;;
19782;SDS011;10051;40.294;-3.754;2023-02-14T08:47:51;71.70;;;13.30;;
19782;SDS011;10051;40.294;-3.754;2023-02-14T08:50:17;16.30;;;9.43;;
19782;SDS011;10051;40.294;-3.754;2023-02-14T08:52:43;17.27;;;9.60;;
19782;SDS011;10051;40.294;-3.754;2023-02-14T08:55:09;22.50;;;9.63;;
19782;SDS011;10051;40.294;-3.754;2023-02-14T08:57:36;17.23;;;9.10;;
19782;SDS011;10051;40.294;-3.754;2023-02-14T09:00:02;19.80;;;10.60;;
19782;SDS011;10051;40.294;-3.754;2023-02-14T09:02:29;16.00;;;9.00;;
19782;SDS011;10051;40.294;-3.754;2023-02-14T09:04:54;16.85;;;10.00;;
19782;SDS011;10051;40.294;-3.754;2023-02-14T09:07:20;192.37;;;15.27;;
19782;SDS011;10051;40.294;-3.754;2023-02-14T09:09:45;39.50;;;10.27;;
19782;SDS011;10051;40.294;-3.754;2023-02-14T09:12:11;15.93;;;9.27;;
19782;SDS011;10051;40.294;-3.754;2023-02-14T09:14:41;15.50;;;9.00;;
19782;SDS011;10051;40.294;-3.754;2023-02-14T09:17:13;22.17;;;9.52;;
19782;SDS011;10051;40.294;-3.754;2023-02-14T09:19:39;15.70;;;9.07;;
19782;SDS011;10051;40.294;-3.754;2023-02-14T09:22:06;14.05;;;8.50;;
19782;SDS011;10051;40.294;-3.754;2023-02-14T09:24:34;16.25;;;8.65;;
19782;SDS011;10051;40.294;-3.754;2023-02-14T09:27:01;15.03;;;8.73;;
19782;SDS011;10051;40.294;-3.754;2023-02-14T09:29:27;16.03;;;8.83;;
19782;SDS011;10051;40.294;-3.754;2023-02-14T09:31:54;17.33;;;8.90;;
19782;SDS011;10051;40.294;-3.754;2023-02-14T09:34:21;14.93;;;8.80;;
19782;SDS011;10051;40.294;-3.754;2023-02-14T09:36:46;14.43;;;8.37;;
19782;SDS011;10051;40.294;-3.754;2023-02-14T09:39:12;15.87;;;9.00;;
19782;SDS011;10051;40.294;-3.754;2023-02-14T09:41:44;15.73;;;8.43;;
19782;SDS011;10051;40.294;-3.754;2023-02-14T09:47:39;15.07;;;8.70;;
19782;SDS011;10051;40.294;-3.754;2023-02-14T09:52:50;14.17;;;8.50;;
19782;SDS011;10051;40.294;-3.754;2023-02-14T09:55:20;14.15;;;8.02;;
19782;SDS011;10051;40.294;-3.754;2023-02-14T10:00:56;16.10;;;7.77;;
19782;SDS011;10051;40.294;-3.754;2023-02-14T10:03:59;18.23;;;8.17;;
19782;SDS011;10051;40.294;-3.754;2023-02-14T10:12:55;15.60;;;8.00;;
19782;SDS011;10051;40.294;-3.754;2023-02-14T10:15:42;13.68;;;8.07;;
19782;SDS011;10051;40.294;-3.754;2023-02-14T10:18:13;13.45;;;8.38;;
19782;SDS011;10051;40.294;-3.754;2023-02-14T10:20:57;12.50;;;8.05;;
19782;SDS011;10051;40.294;-3.754;2023-02-14T10:26:23;12.40;;;6.95;;
19782;SDS011;10051;40.294;-3.754;2023-02-14T10:28:57;13.95;;;6.90;;
19782;SDS011;10051;40.294;-3.754;2023-02-14T10:33:58;13.63;;;8.02;;
19782;SDS011;10051;40.294;-3.754;2023-02-14T10:36:40;12.20;;;7.47;;
19782;SDS011;10051;40.294;-3.754;2023-02-14T10:42:08;11.98;;;6.72;;
19782;SDS011;10051;40.294;-3.754;2023-02-14T10:47:53;13.32;;;6.38;;
19782;SDS011;10051;40.294;-3.754;2023-02-14T10:55:39;9.32;;;5.63;;
19782;SDS011;10051;40.294;-3.754;2023-02-14T10:58:11;8.50;;;5.72;;
19782;SDS011;10051;40.294;-3.754;2023-02-14T11:00:45;9.98;;;5.80;;
19782;SDS011;10051;40.294;-3.754;2023-02-14T11:03:26;12.38;;;5.43;;
19782;SDS011;10051;40.294;-3.754;2023-02-14T11:05:53;13.57;;;5.32;;
19782;SDS011;10051;40.294;-3.754;2023-02-14T11:10:58;11.60;;;5.53;;
19782;SDS011;10051;40.294;-3.754;2023-02-14T11:13:33;7.85;;;4.90;;
19782;SDS011;10051;40.294;-3.754;2023-02-14T11:16:01;10.23;;;5.20;;
19782;SDS011;10051;40.294;-3.754;2023-02-14T11:18:29;9.82;;;5.20;;
19782;SDS011;10051;40.294;-3.754;2023-02-14T11:21:04;10.95;;;5.07;;
19782;SDS011;10051;40.294;-3.754;2023-02-14T11:23:33;7.95;;;5.30;;
19782;SDS011;10051;40.294;-3.754;2023-02-14T11:26:02;9.48;;;4.90;;
19782;SDS011;10051;40.294;-3.754;2023-02-14T11:28:31;8.88;;;5.15;;
19782;SDS011;10051;40.294;-3.754;2023-02-14T11:30:58;7.47;;;5.07;;
19782;SDS011;10051;40.294;-3.754;2023-02-14T11:33:32;9.88;;;5.30;;
19782;SDS011;10051;40.294;-3.754;2023-02-14T11:36:02;9.43;;;5.10;;
19782;SDS011;10051;40.294;-3.754;2023-02-14T11:38:34;8.57;;;5.28;;
19782;SDS011;10051;40.294;-3.754;2023-02-14T11:41:03;8.15;;;5.20;;
19782;SDS011;10051;40.294;-3.754;2023-02-14T11:43:35;12.25;;;5.18;;
19782;SDS011;10051;40.294;-3.754;2023-02-14T11:46:04;7.88;;;5.00;;
19782;SDS011;10051;40.294;-3.754;2023-02-14T11:48:54;7.38;;;4.70;;
19782;SDS011;10051;40.294;-3.754;2023-02-14T11:51:27;6.82;;;4.97;;
19782;SDS011;10051;40.294;-3.754;2023-02-14T11:53:56;11.98;;;5.10;;
19782;SDS011;10051;40.294;-3.754;2023-02-14T11:56:47;8.20;;;5.28;;
19782;SDS011;10051;40.294;-3.754;2023-02-14T11:59:26;10.80;;;4.60;;
19782;SDS011;10051;40.294;-3.754;2023-02-14T12:01:59;8.85;;;4.90;;
19782;SDS011;10051;40.294;-3.754;2023-02-14T12:04:32;12.10;;;6.50;;
19782;SDS011;10051;40.294;-3.754;2023-02-14T12:09:39;10.23;;;5.15;;
19782;SDS011;10051;40.294;-3.754;2023-02-14T12:14:41;8.95;;;5.03;;
19782;SDS011;10051;40.294;-3.754;2023-02-14T12:22:33;6.75;;;4.32;;
19782;SDS011;10051;40.294;-3.754;2023-02-14T12:25:11;10.90;;;4.53;;
19782;SDS011;10051;40.294;-3.754;2023-02-14T12:30:16;9.52;;;4.60;;
19782;SDS011;10051;40.294;-3.754;2023-02-14T12:32:48;7.53;;;4.50;;
19782;SDS011;10051;40.294;-3.754;2023-02-14T12:35:25;10.20;;;4.95;;
19782;SDS011;10051;40.294;-3.754;2023-02-14T12:40:58;6.95;;;4.25;;
19782;SDS011;10051;40.294;-3.754;2023-02-14T12:51:51;6.68;;;4.20;;
19782;SDS011;10051;40.294;-3.754;2023-02-14T12:54:35;9.45;;;4.80;;
19782;SDS011;10051;40.294;-3.754;2023-02-14T13:16:43;8.40;;;5.35;;
19782;SDS011;10051;40.294;-3.754;2023-02-14T13:22:05;11.77;;;5.00;;
19782;SDS011;10051;40.294;-3.754;2023-02-14T13:24:43;9.75;;;4.72;;
19782;SDS011;10051;40.294;-3.754;2023-02-14T13:27:12;9.90;;;5.07;;
19782;SDS011;10051;40.294;-3.754;2023-02-14T13:29:48;10.32;;;5.03;;
19782;SDS011;10051;40.294;-3.754;2023-02-14T13:32:21;11.05;;;6.03;;
19782;SDS011;10051;40.294;-3.754;2023-02-14T13:34:50;9.65;;;5.00;;
19782;SDS011;10051;40.294;-3.754;2023-02-14T13:37:20;9.15;;;5.63;;
19782;SDS011;10051;40.294;-3.754;2023-02-14T13:39:59;5.70;;;4.30;;
19782;SDS011;10051;40.294;-3.754;2023-02-14T13:42:52;6.78;;;4.10;;
19782;SDS011;10051;40.294;-3.754;2023-02-14T13:48:14;9.15;;;4.30;;
19782;SDS011;10051;40.294;-3.754;2023-02-14T13:50:49;5.93;;;3.95;;
19782;SDS011;10051;40.294;-3.754;2023-02-14T13:53:30;6.68;;;3.95;;
19782;SDS011;10051;40.294;-3.754;2023-02-14T13:56:00;6.90;;;4.35;;
19782;SDS011;10051;40.294;-3.754;2023-02-14T13:58:28;8.63;;;4.78;;
19782;SDS011;10051;40.294;-3.754;2023-02-14T14:00:54;8.88;;;4.20;;
19782;SDS011;10051;40.294;-3.754;2023-02-14T14:06:00;5.93;;;3.67;;
19782;SDS011;10051;40.294;-3.754;2023-02-14T14:11:00;7.72;;;3.50;;
19782;SDS011;10051;40.294;-3.754;2023-02-14T14:21:34;7.43;;;3.40;;
19782;SDS011;10051;40.294;-3.754;2023-02-14T14:26:58;6.47;;;3.42;;
19782;SDS011;10051;40.294;-3.754;2023-02-14T14:29:32;6.22;;;3.65;;
19782;SDS011;10051;40.294;-3.754;2023-02-14T14:32:15;10.00;;;3.60;;
19782;SDS011;10051;40.294;-3.754;2023-02-14T14:35:03;5.80;;;3.45;;
19782;SDS011;10051;40.294;-3.754;2023-02-14T14:37:30;4.30;;;3.38;;
19782;SDS011;10051;40.294;-3.754;2023-02-14T14:39:58;5.95;;;3.22;;
19782;SDS011;10051;40.294;-3.754;2023-02-14T14:42:29;5.10;;;3.22;;
19782;SDS011;10051;40.294;-3.754;2023-02-14T14:45:03;3.97;;;2.83;;
19782;SDS011;10051;40.294;-3.754;2023-02-14T14:47:44;8.60;;;3.22;;
19782;SDS011;10051;40.294;-3.754;2023-02-14T14:50:44;7.82;;;3.10;;
19782;SDS011;10051;40.294;-3.754;2023-02-14T14:53:04;7.30;;;3.10;;
19782;SDS011;10051;40.294;-3.754;2023-02-14T14:55:35;3.88;;;2.67;;
19782;SDS011;10051;40.294;-3.754;2023-02-14T14:58:04;7.60;;;2.80;;
19782;SDS011;10051;40.294;-3.754;2023-02-14T15:00:36;9.45;;;3.10;;
19782;SDS011;10051;40.294;-3.754;2023-02-14T15:03:12;5.82;;;2.90;;
19782;SDS011;10051;40.294;-3.754;2023-02-14T15:05:42;6.43;;;2.83;;
19782;SDS011;10051;40.294;-3.754;2023-02-14T15:10:47;5.85;;;3.20;;
19782;SDS011;10051;40.294;-3.754;2023-02-14T15:13:28;9.32;;;3.30;;
19782;SDS011;10051;40.294;-3.754;2023-02-14T15:16:19;8.60;;;3.40;;
19782;SDS011;10051;40.294;-3.754;2023-02-14T15:18:48;13.07;;;3.70;;
19782;SDS011;10051;40.294;-3.754;2023-02-14T15:21:15;7.30;;;2.90;;
19782;SDS011;10051;40.294;-3.754;2023-02-14T15:23:42;10.25;;;3.35;;
19782;SDS011;10051;40.294;-3.754;2023-02-14T15:26:16;13.98;;;3.33;;
19782;SDS011;10051;40.294;-3.754;2023-02-14T15:28:51;9.10;;;3.40;;
19782;SDS011;10051;40.294;-3.754;2023-02-14T15:31:24;13.32;;;3.65;;
19782;SDS011;10051;40.294;-3.754;2023-02-14T15:33:54;8.63;;;3.60;;
19782;SDS011;10051;40.294;-3.754;2023-02-14T15:36:20;6.18;;;3.10;;
19782;SDS011;10051;40.294;-3.754;2023-02-14T15:38:50;7.80;;;3.00;;
19782;SDS011;10051;40.294;-3.754;2023-02-14T15:41:18;5.65;;;3.10;;
19782;SDS011;10051;40.294;-3.754;2023-02-14T15:43:47;7.20;;;3.28;;
19782;SDS011;10051;40.294;-3.754;2023-02-14T15:46:18;7.15;;;3.10;;
19782;SDS011;10051;40.294;-3.754;2023-02-14T15:48:54;6.90;;;2.95;;
19782;SDS011;10051;40.294;-3.754;2023-02-14T15:51:24;7.40;;;3.70;;
19782;SDS011;10051;40.294;-3.754;2023-02-14T15:54:00;8.60;;;3.17;;
19782;SDS011;10051;40.294;-3.754;2023-02-14T15:56:28;9.88;;;3.10;;
19782;SDS011;10051;40.294;-3.754;2023-02-14T15:59:16;6.68;;;3.03;;
19782;SDS011;10051;40.294;-3.754;2023-02-14T16:01:48;5.95;;;3.00;;
19782;SDS011;10051;40.294;-3.754;2023-02-14T16:04:14;5.07;;;3.00;;
19782;SDS011;10051;40.294;-3.754;2023-02-14T16:06:46;6.65;;;2.83;;
19782;SDS011;10051;40.294;-3.754;2023-02-14T16:09:27;6.18;;;3.20;;
19782;SDS011;10051;40.294;-3.754;2023-02-14T16:11:55;5.55;;;3.13;;
19782;SDS011;10051;40.294;-3.754;2023-02-14T16:17:03;6.20;;;3.20;;
19782;SDS011;10051;40.294;-3.754;2023-02-14T16:19:37;6.97;;;3.50;;
19782;SDS011;10051;40.294;-3.754;2023-02-14T16:22:22;7.15;;;3.55;;
19782;SDS011;10051;40.294;-3.754;2023-02-14T16:24:49;7.72;;;3.10;;
19782;SDS011;10051;40.294;-3.754;2023-02-14T16:27:16;9.02;;;3.28;;
19782;SDS011;10051;40.294;-3.754;2023-02-14T16:29:41;5.50;;;3.03;;
19782;SDS011;10051;40.294;-3.754;2023-02-14T16:32:08;8.55;;;3.38;;
19782;SDS011;10051;40.294;-3.754;2023-02-14T16:34:36;6.28;;;3.30;;
19782;SDS011;10051;40.294;-3.754;2023-02-14T16:37:16;7.85;;;3.30;;
19782;SDS011;10051;40.294;-3.754;2023-02-14T16:39:45;5.13;;;3.35;;
19782;SDS011;10051;40.294;-3.754;2023-02-14T16:42:14;4.57;;;3.20;;
19782;SDS011;10051;40.294;-3.754;2023-02-14T16:44:41;4.88;;;3.45;;
19782;SDS011;10051;40.294;-3.754;2023-02-14T16:47:14;7.32;;;3.20;;
19782;SDS011;10051;40.294;-3.754;2023-02-14T16:49:41;6.35;;;3.55;;
19782;SDS011;10051;40.294;-3.754;2023-02-14T16:52:11;7.65;;;3.17;;
19782;SDS011;10051;40.294;-3.754;2023-02-14T16:54:40;7.70;;;3.55;;
19782;SDS011;10051;40.294;-3.754;2023-02-14T16:57:06;11.27;;;3.80;;
19782;SDS011;10051;40.294;-3.754;2023-02-14T16:59:40;8.75;;;3.65;;
19782;SDS011;10051;40.294;-3.754;2023-02-14T17:02:06;5.82;;;3.47;;
19782;SDS011;10051;40.294;-3.754;2023-02-14T17:04:32;6.78;;;3.88;;